createdAt,value
2022-09-24T00:02:04.016Z,100.00
2022-09-24T00:04:31.614Z,100.00
2022-09-24T00:07:00.173Z,100.00
2022-09-24T00:09:29.235Z,100.00
2022-09-24T00:11:56.673Z,100.00
2022-09-24T00:14:25.176Z,100.00
2022-09-24T00:16:52.539Z,100.00
2022-09-24T00:19:20.141Z,100.00
2022-09-24T00:21:48.804Z,100.00
2022-09-24T00:24:36.390Z,100.00
2022-09-24T00:27:06.645Z,100.00
2022-09-24T00:29:35.911Z,100.00
2022-09-24T00:32:37.087Z,100.00
2022-09-24T00:35:04.856Z,100.00
2022-09-24T00:37:32.220Z,100.00
2022-09-24T00:40:00.973Z,100.00
2022-09-24T00:42:29.652Z,100.00
2022-09-24T00:44:57.899Z,100.00
2022-09-24T00:47:36.067Z,100.00
2022-09-24T00:50:17.847Z,100.00
2022-09-24T00:52:52.440Z,100.00
2022-09-24T00:55:23.834Z,100.00
2022-09-24T00:57:59.864Z,100.00
2022-09-24T01:00:28.759Z,100.00
2022-09-24T01:03:04.602Z,100.00
2022-09-24T01:05:33.198Z,100.00
2022-09-24T01:08:01.568Z,100.00
2022-09-24T01:10:48.114Z,100.00
2022-09-24T01:13:57.293Z,100.00
2022-09-24T01:16:50.479Z,100.00
2022-09-24T01:19:32.999Z,100.00
2022-09-24T01:22:09.250Z,100.00
2022-09-24T01:24:55.663Z,100.00
2022-09-24T01:27:39.788Z,100.00
2022-09-24T01:30:11.312Z,100.00
2022-09-24T01:32:56.696Z,100.00
2022-09-24T01:35:39.340Z,100.00
2022-09-24T01:38:29.627Z,100.00
2022-09-24T01:41:00.271Z,100.00
2022-09-24T01:43:32.996Z,100.00
2022-09-24T01:46:07.078Z,100.00
2022-09-24T01:48:38.465Z,100.00
2022-09-24T01:51:09.671Z,100.00
2022-09-24T01:53:46.460Z,100.00
2022-09-24T01:56:26.124Z,100.00
2022-09-24T01:59:02.333Z,100.00
2022-09-24T02:01:35.126Z,100.00
2022-09-24T02:04:14.264Z,100.00
2022-09-24T02:06:54.553Z,100.00
2022-09-24T02:09:38.035Z,100.00
2022-09-24T02:12:12.124Z,100.00
2022-09-24T02:14:48.690Z,100.00
2022-09-24T02:17:18.059Z,100.00
2022-09-24T02:19:49.132Z,100.00
2022-09-24T02:22:18.766Z,100.00
2022-09-24T02:24:53.491Z,100.00
2022-09-24T02:27:22.091Z,100.00
2022-09-24T02:29:49.761Z,100.00
2022-09-24T02:32:19.899Z,100.00
2022-09-24T02:34:52.898Z,100.00
2022-09-24T02:37:23.592Z,100.00
2022-09-24T02:39:52.292Z,100.00
2022-09-24T02:42:20.588Z,100.00
2022-09-24T02:44:48.092Z,100.00
2022-09-24T02:47:19.699Z,100.00
2022-09-24T02:49:47.131Z,100.00
2022-09-24T02:52:17.212Z,100.00
2022-09-24T02:54:45.356Z,100.00
2022-09-24T02:57:14.456Z,100.00
2022-09-24T02:59:41.777Z,100.00
2022-09-24T03:02:09.467Z,100.00
2022-09-24T03:04:37.981Z,100.00
2022-09-24T03:07:05.700Z,100.00
2022-09-24T03:09:33.122Z,100.00
2022-09-24T03:12:01.642Z,100.00
2022-09-24T03:14:29.034Z,100.00
2022-09-24T03:16:57.290Z,100.00
2022-09-24T03:19:25.527Z,100.00
2022-09-24T03:21:53.011Z,100.00
2022-09-24T03:24:20.423Z,100.00
2022-09-24T03:26:49.376Z,100.00
2022-09-24T03:29:38.120Z,100.00
2022-09-24T03:32:05.976Z,100.00
2022-09-24T03:34:33.352Z,100.00
2022-09-24T03:37:00.890Z,100.00
2022-09-24T03:39:31.331Z,100.00
2022-09-24T03:41:59.599Z,100.00
2022-09-24T03:44:27.290Z,100.00
2022-09-24T03:46:57.403Z,100.00
2022-09-24T03:49:25.883Z,100.00
2022-09-24T03:51:55.669Z,100.00
2022-09-24T03:54:23.795Z,100.00
2022-09-24T03:56:51.206Z,100.00
2022-09-24T03:59:18.860Z,100.00
2022-09-24T04:01:47.872Z,100.00
2022-09-24T04:04:16.339Z,100.00
2022-09-24T04:06:44.328Z,100.00
2022-09-24T04:09:11.726Z,100.00
2022-09-24T04:11:40.743Z,100.00
2022-09-24T04:14:08.230Z,100.00
2022-09-24T04:16:36.668Z,100.00
2022-09-24T04:19:04.112Z,100.00
2022-09-24T04:21:31.933Z,100.00
2022-09-24T04:24:02.424Z,100.00
2022-09-24T04:26:31.056Z,100.00
2022-09-24T04:28:59.334Z,100.00
2022-09-24T04:31:29.329Z,100.00
2022-09-24T04:33:58.341Z,100.00
2022-09-24T04:36:27.047Z,100.00
2022-09-24T04:38:54.836Z,100.00
2022-09-24T04:41:22.664Z,100.00
2022-09-24T04:43:51.460Z,100.00
2022-09-24T04:46:20.236Z,100.00
2022-09-24T04:48:47.803Z,100.00
2022-09-24T04:51:17.788Z,100.00
2022-09-24T04:53:48.742Z,100.00
2022-09-24T04:56:16.142Z,100.00
2022-09-24T04:58:43.420Z,100.00
2022-09-24T05:01:12.092Z,100.00
2022-09-24T05:03:39.682Z,100.00
2022-09-24T05:06:08.640Z,100.00
2022-09-24T05:08:36.008Z,100.00
2022-09-24T05:11:03.865Z,100.00
2022-09-24T05:13:31.255Z,100.00
2022-09-24T05:16:01.374Z,100.00
2022-09-24T05:18:28.862Z,100.00
2022-09-24T05:20:56.729Z,100.00
2022-09-24T05:23:24.980Z,100.00
2022-09-24T05:26:11.448Z,100.00
2022-09-24T05:28:41.073Z,100.00
2022-09-24T05:31:10.846Z,100.00
2022-09-24T05:33:39.560Z,100.00
2022-09-24T05:36:07.363Z,100.00
2022-09-24T05:38:35.241Z,100.00
2022-09-24T05:41:03.776Z,100.00
2022-09-24T05:43:31.984Z,100.00
2022-09-24T05:45:59.386Z,100.00
2022-09-24T05:48:26.882Z,100.00
2022-09-24T05:50:57.180Z,100.00
2022-09-24T05:53:24.998Z,100.00
2022-09-24T05:55:53.563Z,100.00
2022-09-24T05:58:21.311Z,100.00
2022-09-24T06:00:49.977Z,100.00
2022-09-24T06:03:19.879Z,100.00
2022-09-24T06:05:49.771Z,100.00
2022-09-24T06:08:19.157Z,100.00
2022-09-24T06:10:47.507Z,100.00
2022-09-24T06:13:22.037Z,100.00
2022-09-24T06:15:49.614Z,100.00
2022-09-24T06:18:17.190Z,100.00
2022-09-24T06:20:45.005Z,100.00
2022-09-24T06:23:14.243Z,100.00
2022-09-24T06:25:42.520Z,100.00
2022-09-24T06:28:10.048Z,100.00
2022-09-24T06:30:39.443Z,100.00
2022-09-24T06:33:14.747Z,100.00
2022-09-24T06:35:45.291Z,100.00
2022-09-24T06:38:18.778Z,100.00
2022-09-24T06:40:48.800Z,100.00
2022-09-24T06:43:18.165Z,100.00
2022-09-24T06:45:46.351Z,100.00
2022-09-24T06:48:14.709Z,100.00
2022-09-24T06:50:45.192Z,100.00
2022-09-24T06:53:13.206Z,100.00
2022-09-24T06:55:41.116Z,100.00
2022-09-24T06:58:15.186Z,100.00
2022-09-24T07:00:44.970Z,100.00
2022-09-24T07:03:15.780Z,100.00
2022-09-24T07:05:43.944Z,100.00
2022-09-24T07:08:11.698Z,100.00
2022-09-24T07:10:45.413Z,100.00
2022-09-24T07:13:14.385Z,100.00
2022-09-24T07:15:42.947Z,100.00
2022-09-24T07:18:12.359Z,100.00
2022-09-24T07:20:40.342Z,100.00
2022-09-24T07:23:09.945Z,100.00
2022-09-24T07:25:39.502Z,100.00
2022-09-24T07:28:10.376Z,99.77
2022-09-24T07:30:39.215Z,98.84
2022-09-24T07:33:08.011Z,98.65
2022-09-24T07:35:38.424Z,96.19
2022-09-24T07:38:12.403Z,93.16
2022-09-24T07:40:40.506Z,91.17
2022-09-24T07:43:12.494Z,88.26
2022-09-24T07:45:41.533Z,83.51
2022-09-24T07:48:10.517Z,81.85
2022-09-24T07:50:40.792Z,82.26
2022-09-24T07:53:12.235Z,83.23
2022-09-24T07:55:40.902Z,83.92
2022-09-24T07:58:12.828Z,85.16
2022-09-24T08:00:40.631Z,86.43
2022-09-24T08:03:08.074Z,86.70
2022-09-24T08:05:36.520Z,86.53
2022-09-24T08:08:04.734Z,86.96
2022-09-24T08:10:32.587Z,85.94
2022-09-24T08:13:02.465Z,81.37
2022-09-24T08:15:33.329Z,76.04
2022-09-24T08:18:06.496Z,71.64
2022-09-24T08:20:36.715Z,67.59
2022-09-24T08:23:06.889Z,64.78
2022-09-24T08:25:34.317Z,60.83
2022-09-24T08:28:06.155Z,56.55
2022-09-24T08:30:35.747Z,55.65
2022-09-24T08:33:08.223Z,55.92
2022-09-24T08:35:37.093Z,57.22
2022-09-24T08:38:04.451Z,56.58
2022-09-24T08:40:46.279Z,56.38
2022-09-24T08:43:28.809Z,57.86
2022-09-24T08:46:18.724Z,60.46
2022-09-24T08:48:52.064Z,61.84
2022-09-24T08:51:22.397Z,61.52
2022-09-24T08:54:14.579Z,64.31
2022-09-24T08:56:46.246Z,67.12
2022-09-24T08:59:34.137Z,68.71
2022-09-24T09:02:24.549Z,68.89
2022-09-24T09:05:16.099Z,68.52
2022-09-24T09:07:55.522Z,68.80
2022-09-24T09:10:29.236Z,68.82
2022-09-24T09:13:11.241Z,67.65
2022-09-24T09:15:46.735Z,65.60
2022-09-24T09:18:32.971Z,66.01
2022-09-24T09:21:26.986Z,64.93
2022-09-24T09:23:58.195Z,64.34
2022-09-24T09:26:27.959Z,64.00
2022-09-24T09:29:00.245Z,65.23
2022-09-24T09:32:00.254Z,64.55
2022-09-24T09:34:47.072Z,63.51
2022-09-24T09:37:26.235Z,63.26
2022-09-24T09:40:12.094Z,61.16
2022-09-24T09:42:40.644Z,61.75
2022-09-24T09:45:32.935Z,61.68
2022-09-24T09:48:04.437Z,61.30
2022-09-24T09:50:49.017Z,60.97
2022-09-24T09:53:25.072Z,60.71
2022-09-24T09:56:03.463Z,59.74
2022-09-24T09:58:33.751Z,59.79
2022-09-24T10:01:07.472Z,60.49
2022-09-24T10:03:47.327Z,60.58
2022-09-24T10:06:29.058Z,59.98
2022-09-24T10:09:29.169Z,59.69
2022-09-24T10:12:10.338Z,57.87
2022-09-24T10:14:38.288Z,56.99
2022-09-24T10:17:06.832Z,56.42
2022-09-24T10:19:36.740Z,56.20
2022-09-24T10:22:12.012Z,53.96
2022-09-24T10:24:43.522Z,54.06
2022-09-24T10:27:15.160Z,55.02
2022-09-24T10:30:01.445Z,56.18
2022-09-24T10:32:32.425Z,56.76
2022-09-24T10:35:21.280Z,57.11
2022-09-24T10:38:01.416Z,57.16
2022-09-24T10:40:40.442Z,54.80
2022-09-24T10:43:17.104Z,54.18
2022-09-24T10:45:53.411Z,53.61
2022-09-24T10:48:27.848Z,52.35
2022-09-24T10:51:13.290Z,51.79
2022-09-24T10:53:51.253Z,51.54
2022-09-24T10:56:43.566Z,51.77
2022-09-24T10:59:23.086Z,50.29
2022-09-24T11:02:10.505Z,48.64
2022-09-24T11:04:46.843Z,49.02
2022-09-24T11:07:30.044Z,49.37
2022-09-24T11:10:41.424Z,50.02
2022-09-24T11:13:32.056Z,50.10
2022-09-24T11:16:18.347Z,50.48
2022-09-24T11:18:53.037Z,49.13
2022-09-24T11:21:24.350Z,49.44
2022-09-24T11:24:39.423Z,48.71
2022-09-24T11:27:35.536Z,47.79
2022-09-24T11:30:18.632Z,47.58
2022-09-24T11:32:58.824Z,47.69
2022-09-24T11:35:41.122Z,47.47
2022-09-24T11:38:45.300Z,46.52
2022-09-24T11:41:17.327Z,46.96
2022-09-24T11:44:01.092Z,46.78
2022-09-24T11:46:56.835Z,46.90
2022-09-24T11:49:56.899Z,48.22
2022-09-24T11:52:38.513Z,48.43
2022-09-24T11:55:31.817Z,49.31
2022-09-24T11:58:18.157Z,48.29
2022-09-24T12:00:53.665Z,47.39
2022-09-24T12:03:38.019Z,47.60
2022-09-24T12:06:19.378Z,45.30
2022-09-24T12:08:49.818Z,44.35
2022-09-24T12:11:33.294Z,43.02
2022-09-24T12:14:12.489Z,43.05
2022-09-24T12:16:45.697Z,43.34
2022-09-24T12:19:30.902Z,44.39
2022-09-24T12:22:01.327Z,44.73
2022-09-24T12:24:33.445Z,45.37
2022-09-24T12:27:23.444Z,46.05
2022-09-24T12:30:25.492Z,43.99
2022-09-24T12:33:01.462Z,43.99
2022-09-24T12:35:45.373Z,43.81
2022-09-24T12:38:36.578Z,43.72
2022-09-24T12:41:26.684Z,44.75
2022-09-24T12:44:12.187Z,44.71
2022-09-24T12:46:48.705Z,45.46
2022-09-24T12:49:30.530Z,45.05
2022-09-24T12:52:17.794Z,44.24
2022-09-24T12:54:46.111Z,43.96
2022-09-24T12:57:26.055Z,44.36
2022-09-24T12:59:58.102Z,44.69
2022-09-24T13:02:28.520Z,45.56
2022-09-24T13:05:01.989Z,45.55
2022-09-24T13:07:36.894Z,45.79
2022-09-24T13:10:18.874Z,45.79
2022-09-24T13:12:47.676Z,46.00
2022-09-24T13:15:33.728Z,45.63
2022-09-24T13:18:08.213Z,45.95
2022-09-24T13:20:37.762Z,46.36
2022-09-24T13:23:16.583Z,46.19
2022-09-24T13:26:08.097Z,45.48
2022-09-24T13:28:56.164Z,44.46
2022-09-24T13:31:30.890Z,45.52
2022-09-24T13:34:11.011Z,45.75
2022-09-24T13:36:48.093Z,46.90
2022-09-24T13:39:18.658Z,46.38
2022-09-24T13:41:56.479Z,47.15
2022-09-24T13:44:38.517Z,48.30
2022-09-24T13:47:17.463Z,49.80
2022-09-24T13:49:48.102Z,49.97
2022-09-24T13:52:36.098Z,50.50
2022-09-24T13:55:12.474Z,50.94
2022-09-24T13:57:46.831Z,50.27
2022-09-24T14:00:26.332Z,49.83
2022-09-24T14:03:03.287Z,49.46
2022-09-24T14:05:35.413Z,48.19
2022-09-24T14:08:08.826Z,44.85
2022-09-24T14:10:37.431Z,46.04
2022-09-24T14:13:13.880Z,47.86
2022-09-24T14:15:58.007Z,48.64
2022-09-24T14:18:28.265Z,48.69
2022-09-24T14:21:07.770Z,47.47
2022-09-24T14:24:03.972Z,48.80
2022-09-24T14:26:49.250Z,48.36
2022-09-24T14:29:22.635Z,49.77
2022-09-24T14:32:02.978Z,50.40
2022-09-24T14:34:34.981Z,51.09
2022-09-24T14:37:12.470Z,50.70
2022-09-24T14:39:46.422Z,50.54
2022-09-24T14:42:41.602Z,50.68
2022-09-24T14:45:18.721Z,48.96
2022-09-24T14:47:46.992Z,50.18
2022-09-24T14:50:35.545Z,51.20
2022-09-24T14:53:22.812Z,52.19
2022-09-24T14:55:53.215Z,52.32
2022-09-24T14:58:30.415Z,52.71
2022-09-24T15:01:05.820Z,53.47
2022-09-24T15:03:38.983Z,52.93
2022-09-24T15:06:18.128Z,52.00
2022-09-24T15:09:17.931Z,52.40
2022-09-24T15:11:46.630Z,52.55
2022-09-24T15:14:16.842Z,53.39
2022-09-24T15:16:47.592Z,53.83
2022-09-24T15:19:20.073Z,54.21
2022-09-24T15:21:52.929Z,54.65
2022-09-24T15:24:22.204Z,55.74
2022-09-24T15:27:16.091Z,56.67
2022-09-24T15:29:44.815Z,57.47
2022-09-24T15:32:18.149Z,58.57
2022-09-24T15:34:46.494Z,59.24
2022-09-24T15:37:20.295Z,59.11
2022-09-24T15:39:49.938Z,59.21
2022-09-24T15:42:21.314Z,59.04
2022-09-24T15:44:50.723Z,59.42
2022-09-24T15:47:18.955Z,59.21
2022-09-24T15:49:46.792Z,57.37
2022-09-24T15:52:33.142Z,55.79
2022-09-24T15:55:03.058Z,55.44
2022-09-24T15:57:30.417Z,55.58
2022-09-24T15:59:57.848Z,55.11
2022-09-24T16:02:32.629Z,54.10
2022-09-24T16:05:04.204Z,54.50
2022-09-24T16:07:34.964Z,55.46
2022-09-24T16:10:02.373Z,56.35
2022-09-24T16:12:29.726Z,56.17
2022-09-24T16:14:59.291Z,56.58
2022-09-24T16:17:28.175Z,56.13
2022-09-24T16:19:58.533Z,55.87
2022-09-24T16:22:26.036Z,55.62
2022-09-24T16:24:54.271Z,55.46
2022-09-24T16:27:21.692Z,55.01
2022-09-24T16:29:50.164Z,55.69
2022-09-24T16:32:19.475Z,55.67
2022-09-24T16:34:47.295Z,55.99
2022-09-24T16:37:17.067Z,56.19
2022-09-24T16:39:44.479Z,56.94
2022-09-24T16:42:11.897Z,57.74
2022-09-24T16:44:39.312Z,58.45
2022-09-24T16:47:06.898Z,58.85
2022-09-24T16:49:36.315Z,59.24
2022-09-24T16:52:04.516Z,59.35
2022-09-24T16:54:32.876Z,59.65
2022-09-24T16:57:01.942Z,60.14
2022-09-24T16:59:31.694Z,60.41
2022-09-24T17:01:59.900Z,59.33
2022-09-24T17:04:27.742Z,59.48
2022-09-24T17:06:56.440Z,59.10
2022-09-24T17:09:42.895Z,58.67
2022-09-24T17:12:11.851Z,58.36
2022-09-24T17:14:39.734Z,59.01
2022-09-24T17:17:07.284Z,58.21
2022-09-24T17:19:34.726Z,57.99
2022-09-24T17:22:02.619Z,58.24
2022-09-24T17:24:30.447Z,58.80
2022-09-24T17:26:58.085Z,59.40
2022-09-24T17:29:30.443Z,59.54
2022-09-24T17:32:00.140Z,59.88
2022-09-24T17:34:27.784Z,60.46
2022-09-24T17:36:57.184Z,60.38
2022-09-24T17:39:24.711Z,60.84
2022-09-24T17:41:54.094Z,60.99
2022-09-24T17:44:21.521Z,60.97
2022-09-24T17:46:48.976Z,61.19
2022-09-24T17:49:16.898Z,61.66
2022-09-24T17:51:46.694Z,61.34
2022-09-24T17:54:15.967Z,61.65
2022-09-24T17:56:45.587Z,61.37
2022-09-24T17:59:14.206Z,61.85
2022-09-24T18:01:44.823Z,61.58
2022-09-24T18:04:15.861Z,61.00
2022-09-24T18:06:45.074Z,60.40
2022-09-24T18:09:15.134Z,60.15
2022-09-24T18:11:48.675Z,61.00
2022-09-24T18:14:23.222Z,61.18
2022-09-24T18:16:51.472Z,60.75
2022-09-24T18:19:19.132Z,61.11
2022-09-24T18:21:49.637Z,61.91
2022-09-24T18:24:20.014Z,62.17
2022-09-24T18:26:52.688Z,62.11
2022-09-24T18:29:21.529Z,62.91
2022-09-24T18:31:51.807Z,63.50
2022-09-24T18:34:20.961Z,63.22
2022-09-24T18:36:48.336Z,63.34
2022-09-24T18:39:24.742Z,63.82
2022-09-24T18:41:54.282Z,64.30
2022-09-24T18:44:21.791Z,64.74
2022-09-24T18:46:50.198Z,65.14
2022-09-24T18:49:17.707Z,65.77
2022-09-24T18:51:46.667Z,66.29
2022-09-24T18:54:14.938Z,66.03
2022-09-24T18:56:45.540Z,66.06
2022-09-24T18:59:18.398Z,65.86
2022-09-24T19:01:49.872Z,66.75
2022-09-24T19:04:18.194Z,67.23
2022-09-24T19:06:52.254Z,67.48
2022-09-24T19:09:21.972Z,67.92
2022-09-24T19:11:50.167Z,68.18
2022-09-24T19:14:21.964Z,67.86
2022-09-24T19:16:49.369Z,68.49
2022-09-24T19:19:16.782Z,68.29
2022-09-24T19:21:47.063Z,67.85
2022-09-24T19:24:14.762Z,68.46
2022-09-24T19:26:43.621Z,68.43
2022-09-24T19:29:13.589Z,68.72
2022-09-24T19:31:43.000Z,68.66
2022-09-24T19:34:12.958Z,68.43
2022-09-24T19:36:45.489Z,69.00
2022-09-24T19:39:16.331Z,69.09
2022-09-24T19:41:44.946Z,68.78
2022-09-24T19:44:12.666Z,69.50
2022-09-24T19:46:41.156Z,69.82
2022-09-24T19:49:08.988Z,69.62
2022-09-24T19:51:37.035Z,69.31
2022-09-24T19:54:07.564Z,68.96
2022-09-24T19:56:36.599Z,68.91
2022-09-24T19:59:05.424Z,69.21
2022-09-24T20:01:34.235Z,69.59
2022-09-24T20:04:05.667Z,69.32
2022-09-24T20:06:35.124Z,69.20
2022-09-24T20:09:03.303Z,69.36
2022-09-24T20:11:33.386Z,69.38
2022-09-24T20:14:03.081Z,69.63
2022-09-24T20:16:33.569Z,69.89
2022-09-24T20:19:02.402Z,70.18
2022-09-24T20:21:34.811Z,69.87
2022-09-24T20:24:06.758Z,70.36
2022-09-24T20:26:53.801Z,70.43
2022-09-24T20:29:23.062Z,70.38
2022-09-24T20:31:53.307Z,70.54
2022-09-24T20:34:28.687Z,69.94
2022-09-24T20:37:01.380Z,69.79
2022-09-24T20:39:30.194Z,69.94
2022-09-24T20:42:02.447Z,71.02
2022-09-24T20:44:30.988Z,71.35
2022-09-24T20:46:59.642Z,72.41
2022-09-24T20:49:28.311Z,73.22
2022-09-24T20:51:57.795Z,73.35
2022-09-24T20:54:28.323Z,74.37
2022-09-24T20:56:57.175Z,74.39
2022-09-24T20:59:27.454Z,74.88
2022-09-24T21:01:55.440Z,75.34
2022-09-24T21:04:24.065Z,76.35
2022-09-24T21:06:52.417Z,77.43
2022-09-24T21:09:20.641Z,76.69
2022-09-24T21:11:50.350Z,75.67
2022-09-24T21:14:19.753Z,74.80
2022-09-24T21:16:47.888Z,74.59
2022-09-24T21:19:16.289Z,75.31
2022-09-24T21:21:45.756Z,76.37
2022-09-24T21:24:15.583Z,77.47
2022-09-24T21:26:45.363Z,78.01
2022-09-24T21:29:21.043Z,76.89
2022-09-24T21:31:48.784Z,78.03
2022-09-24T21:34:18.391Z,77.85
2022-09-24T21:36:46.702Z,78.68
2022-09-24T21:39:19.539Z,79.70
2022-09-24T21:41:51.430Z,82.16
2022-09-24T21:44:19.540Z,83.55
2022-09-24T21:46:49.323Z,83.83
2022-09-24T21:49:18.071Z,84.53
2022-09-24T21:51:47.048Z,85.08
2022-09-24T21:54:17.467Z,86.02
2022-09-24T21:56:47.100Z,86.97
2022-09-24T21:59:35.665Z,88.83
2022-09-24T22:02:04.407Z,90.48
2022-09-24T22:04:33.316Z,91.67
2022-09-24T22:07:02.556Z,92.89
2022-09-24T22:09:32.734Z,92.96
2022-09-24T22:12:04.625Z,94.16
2022-09-24T22:14:34.833Z,95.69
2022-09-24T22:17:04.028Z,96.64
2022-09-24T22:19:31.691Z,98.41
2022-09-24T22:21:59.157Z,99.16
2022-09-24T22:24:27.626Z,100.00
2022-09-24T22:26:55.296Z,100.00
2022-09-24T22:29:23.042Z,100.00
2022-09-24T22:31:51.633Z,100.00
2022-09-24T22:34:37.474Z,100.00
2022-09-24T22:37:06.999Z,100.00
2022-09-24T22:39:35.250Z,100.00
2022-09-24T22:42:02.675Z,100.00
2022-09-24T22:44:30.021Z,100.00
2022-09-24T22:46:58.248Z,100.00
2022-09-24T22:49:27.273Z,100.00
2022-09-24T22:51:54.940Z,100.00
2022-09-24T22:54:24.288Z,100.00
2022-09-24T22:56:52.255Z,100.00
2022-09-24T22:59:19.607Z,100.00
2022-09-24T23:01:48.788Z,100.00
2022-09-24T23:04:17.027Z,100.00
2022-09-24T23:06:44.831Z,100.00
2022-09-24T23:09:12.093Z,100.00
2022-09-24T23:11:40.706Z,100.00
2022-09-24T23:14:14.261Z,100.00
2022-09-24T23:16:43.998Z,100.00
2022-09-24T23:19:17.457Z,100.00
2022-09-24T23:21:48.497Z,100.00
2022-09-24T23:24:21.997Z,100.00
2022-09-24T23:26:51.242Z,100.00
2022-09-24T23:29:18.625Z,100.00
2022-09-24T23:31:46.495Z,100.00
2022-09-24T23:34:14.677Z,100.00
2022-09-24T23:36:46.261Z,100.00
2022-09-24T23:39:17.492Z,100.00
2022-09-24T23:41:46.624Z,100.00
2022-09-24T23:44:14.033Z,100.00
2022-09-24T23:46:42.606Z,100.00
2022-09-24T23:49:10.362Z,100.00
2022-09-24T23:51:38.311Z,100.00
2022-09-24T23:54:08.010Z,100.00
2022-09-24T23:56:35.831Z,100.00
2022-09-24T23:59:03.333Z,100.00
